Accueil
METAR-TAF:

METAR-TAF

Aéroports :

Aéroport international de Bonriki

Tarawa, Kiribati

latitude: 01-21N, longitude: 172-55E, altitude: 2 m

Observation

Le bulletin a été fait il y a 1 heure et 14 minutes, à 20:00 UTC
Vent 7 kt de est/nord-est
Température 30°C
Humidité 75%
Pression 1010 hPa
Visibilité 10 km ou plus
Quelques nuages à une hauteur de 1800 ft, Cumulus congestus.
Nuages épars à une hauteur de 1900 ft
Nuages fragmentés à une hauteur de 30000 ft

METAR: NGTA 172000Z 07007KT 9999 FEW018TCU SCT019 BKN300 30/25 Q1010

Heure: 11:14 (21:14 UTC)

Prévision

Le bulletin a été fait il y a 4 heures et 6 minutes, à 17:08 UTC
Prévision valable du 17 à 18 UTC au 18 à 18 UTC
Vent 10 kt de est/nord-est
Visibilité 10 km ou plus
Quelques nuages à une hauteur de 1800 ft

TAF: NGTA 171708Z 1718/1818 06010KT 9999 FEW018

Observations et prévisions météorologiques de plus de 4000 aéroports (messages METAR et TAF).

Les stations disponibles sont représentées par des disques jaunes et rouges sur la carte.

Passer la souris dessus pour voir le nom de la station.

Cliquer dessus pour voir les observations et prévisions météorologiques.

Pour changer de carte: cliquez sur les boutons verts avec une croix noire pour zoomer, sur le bouton vert avec un tiret pour effectuer un zoom arrière, ou sur les flèches vertes pour les cartes adjacentes.


METAR-TAF: